Time;durP1;ratioP1;P1;durP2;ratioP2;P2;SDS_P1;SDS_P2;PMS_P1;PMS_P2;Temp;Humidity;BMP_temperature;BMP_pressure;BME280_temperature;BME280_humidity;BME280_pressure;Samples;Min_cycle;Max_cycle;Signal;HPM_P1;HPM_P2
2022/12/04 00:01:46;;;;;;;43.00;21.52;;;;;;;;;;5018990;28;20233;-76
2022/12/04 00:04:12;;;;;;;44.95;21.45;;;;;;;;;;5020165;28;20038;-78
2022/12/04 00:06:38;;;;;;;43.40;20.38;;;;;;;;;;5021282;28;20057;-76
2022/12/04 00:09:04;;;;;;;44.22;23.10;;;;;;;;;;5019555;28;20132;-76
2022/12/04 00:11:31;;;;;;;40.80;22.30;;;;;;;;;;5017434;28;20371;-75
2022/12/04 00:13:59;;;;;;;42.97;21.08;;;;;;;;;;5020345;28;20148;-80
2022/12/04 00:16:27;;;;;;;43.85;21.10;;;;;;;;;;5020033;28;20350;-79
2022/12/04 00:18:53;;;;;;;41.17;20.35;;;;;;;;;;5020751;28;20481;-78
2022/12/04 00:21:20;;;;;;;43.17;20.92;;;;;;;;;;5023849;28;20099;-74
2022/12/04 00:23:46;;;;;;;45.92;22.50;;;;;;;;;;5021219;28;20065;-76
2022/12/04 00:26:14;;;;;;;43.90;22.30;;;;;;;;;;5023250;28;20025;-75
2022/12/04 00:28:40;;;;;;;41.83;20.10;;;;;;;;;;5020809;28;20144;-75
2022/12/04 00:31:08;;;;;;;43.78;22.17;;;;;;;;;;5026633;28;20021;-75
2022/12/04 00:33:34;;;;;;;43.92;22.13;;;;;;;;;;5023636;28;20386;-76
2022/12/04 00:36:01;;;;;;;45.22;22.65;;;;;;;;;;5027168;28;20030;-78
2022/12/04 00:38:29;;;;;;;37.65;20.52;;;;;;;;;;5024299;28;20040;-74
2022/12/04 00:40:55;;;;;;;39.80;21.55;;;;;;;;;;5027984;28;20064;-75
2022/12/04 00:43:22;;;;;;;44.47;22.17;;;;;;;;;;5024298;28;20053;-75
2022/12/04 00:45:48;;;;;;;43.13;21.38;;;;;;;;;;5026002;28;20030;-76
2022/12/04 00:48:14;;;;;;;49.10;22.55;;;;;;;;;;5024108;28;20114;-74
2022/12/04 00:50:40;;;;;;;46.63;22.10;;;;;;;;;;5028192;28;20104;-74
2022/12/04 00:53:06;;;;;;;42.08;21.45;;;;;;;;;;5026579;28;20047;-74
2022/12/04 00:55:32;;;;;;;41.03;21.25;;;;;;;;;;5027598;28;20041;-77
2022/12/04 00:57:58;;;;;;;40.65;20.98;;;;;;;;;;5026761;28;20033;-75
2022/12/04 01:00:24;;;;;;;46.10;21.83;;;;;;;;;;5025150;28;20033;-75
2022/12/04 01:02:51;;;;;;;43.92;20.80;;;;;;;;;;5026830;28;20041;-74
2022/12/04 01:05:17;;;;;;;45.95;21.02;;;;;;;;;;5025609;28;20755;-75
2022/12/04 01:07:43;;;;;;;44.75;22.17;;;;;;;;;;5025459;28;20053;-77
2022/12/04 01:10:12;;;;;;;43.25;22.35;;;;;;;;;;5025670;28;20594;-78
2022/12/04 01:12:38;;;;;;;44.88;21.13;;;;;;;;;;5025202;28;20041;-75
2022/12/04 01:15:05;;;;;;;40.42;20.85;;;;;;;;;;5022193;28;20501;-77
2022/12/04 01:17:31;;;;;;;41.45;21.05;;;;;;;;;;5026449;28;20033;-75
2022/12/04 01:19:57;;;;;;;44.17;21.58;;;;;;;;;;5026697;28;20036;-78
2022/12/04 01:22:23;;;;;;;39.45;20.92;;;;;;;;;;5024930;28;20045;-78
2022/12/04 01:24:49;;;;;;;42.67;21.05;;;;;;;;;;5025008;28;20080;-76
2022/12/04 01:27:15;;;;;;;37.85;19.52;;;;;;;;;;5024871;28;20069;-75
2022/12/04 01:29:41;;;;;;;45.20;22.73;;;;;;;;;;5024909;28;20057;-76
2022/12/04 01:32:07;;;;;;;40.60;19.67;;;;;;;;;;5026641;28;20033;-78
2022/12/04 01:34:33;;;;;;;37.83;20.90;;;;;;;;;;5024301;28;20159;-74
2022/12/04 01:36:59;;;;;;;46.28;22.63;;;;;;;;;;5026543;28;20066;-78
2022/12/04 01:39:25;;;;;;;43.72;20.45;;;;;;;;;;5027982;28;20064;-74
2022/12/04 01:41:51;;;;;;;40.70;21.40;;;;;;;;;;5024501;28;20045;-73
2022/12/04 01:44:24;;;;;;;51.65;25.63;;;;;;;;;;5024206;28;20033;-75
2022/12/04 01:46:51;;;;;;;45.78;22.58;;;;;;;;;;5025708;28;20029;-74
2022/12/04 01:49:20;;;;;;;49.50;22.77;;;;;;;;;;5025072;28;20032;-75
2022/12/04 01:51:48;;;;;;;45.47;21.02;;;;;;;;;;5025844;28;20128;-76
2022/12/04 01:54:17;;;;;;;43.80;21.70;;;;;;;;;;5022534;28;20033;-73
2022/12/04 01:56:49;;;;;;;45.17;22.30;;;;;;;;;;5025310;28;20034;-74
2022/12/04 01:59:16;;;;;;;41.92;22.02;;;;;;;;;;5025709;28;20033;-73
2022/12/04 02:01:46;;;;;;;44.13;22.65;;;;;;;;;;5024075;28;20114;-76
2022/12/04 02:04:12;;;;;;;44.78;22.80;;;;;;;;;;5016736;28;20039;-73
2022/12/04 02:06:38;;;;;;;44.22;23.70;;;;;;;;;;5015789;28;20108;-73
2022/12/04 02:09:04;;;;;;;47.85;24.70;;;;;;;;;;5023680;28;20033;-77
2022/12/04 02:11:46;;;;;;;41.88;22.63;;;;;;;;;;5024028;28;20470;-74
2022/12/04 02:14:20;;;;;;;46.93;22.23;;;;;;;;;;5024349;28;20109;-76
2022/12/04 02:16:46;;;;;;;42.03;22.05;;;;;;;;;;5023131;28;20386;-75
2022/12/04 02:19:12;;;;;;;40.08;21.85;;;;;;;;;;5025819;28;20678;-75
2022/12/04 02:21:41;;;;;;;48.53;23.08;;;;;;;;;;5026426;28;20032;-73
2022/12/04 02:24:26;;;;;;;41.45;21.45;;;;;;;;;;5022626;28;20144;-73
2022/12/04 02:26:55;;;;;;;45.05;23.92;;;;;;;;;;5022128;28;20162;-73
2022/12/04 02:29:36;;;;;;;43.38;22.92;;;;;;;;;;5023492;28;20061;-74
2022/12/04 02:32:20;;;;;;;41.47;22.00;;;;;;;;;;5023816;28;20040;-75
2022/12/04 02:34:52;;;;;;;39.35;20.58;;;;;;;;;;5025062;28;20067;-73
2022/12/04 02:37:21;;;;;;;39.03;21.23;;;;;;;;;;5024090;28;20025;-75
2022/12/04 02:39:51;;;;;;;44.50;23.10;;;;;;;;;;5022459;28;20034;-77
2022/12/04 02:42:36;;;;;;;47.65;23.30;;;;;;;;;;5020681;28;20057;-74
2022/12/04 02:45:05;;;;;;;48.47;26.08;;;;;;;;;;5021630;28;20029;-73
2022/12/04 02:47:32;;;;;;;44.58;23.48;;;;;;;;;;5020650;28;20029;-75
2022/12/04 02:49:59;;;;;;;41.70;21.73;;;;;;;;;;5023518;28;20040;-74
2022/12/04 02:52:29;;;;;;;42.60;23.42;;;;;;;;;;5024877;28;20684;-76
2022/12/04 02:55:00;;;;;;;47.13;23.70;;;;;;;;;;5019071;28;20029;-76
2022/12/04 02:57:29;;;;;;;44.10;23.25;;;;;;;;;;5023517;28;20500;-73
2022/12/04 02:59:57;;;;;;;47.13;25.63;;;;;;;;;;5022785;28;20385;-74
2022/12/04 03:02:27;;;;;;;48.20;24.42;;;;;;;;;;5025040;28;20025;-74
2022/12/04 03:04:55;;;;;;;42.20;23.02;;;;;;;;;;5024712;28;20026;-74
2022/12/04 03:07:27;;;;;;;48.33;23.77;;;;;;;;;;5023739;28;20053;-73
2022/12/04 03:09:59;;;;;;;51.07;25.87;;;;;;;;;;5020449;28;20042;-76
2022/12/04 03:12:29;;;;;;;50.33;25.02;;;;;;;;;;5023060;28;20468;-75
2022/12/04 03:14:58;;;;;;;47.88;24.63;;;;;;;;;;5020432;28;20061;-74
2022/12/04 03:17:28;;;;;;;49.63;25.77;;;;;;;;;;5022996;28;20033;-73
2022/12/04 03:19:57;;;;;;;48.22;25.20;;;;;;;;;;5021426;28;20278;-75
2022/12/04 03:22:23;;;;;;;53.70;26.60;;;;;;;;;;5020528;28;20104;-75
2022/12/04 03:24:51;;;;;;;54.63;27.45;;;;;;;;;;5023649;28;20025;-73
2022/12/04 03:27:20;;;;;;;53.08;26.13;;;;;;;;;;5024902;28;20037;-76
2022/12/04 03:29:50;;;;;;;49.08;26.58;;;;;;;;;;5023337;28;20030;-75
2022/12/04 03:32:20;;;;;;;53.05;27.70;;;;;;;;;;5023785;28;20505;-73
2022/12/04 03:34:56;;;;;;;47.88;25.35;;;;;;;;;;5020949;28;20076;-74
2022/12/04 03:37:51;;;;;;;48.38;24.92;;;;;;;;;;5021964;28;20083;-72
2022/12/04 03:40:30;;;;;;;48.25;26.45;;;;;;;;;;4988325;28;20037;-72
2022/12/04 03:43:00;;;;;;;50.50;23.83;;;;;;;;;;5021241;28;20489;-74
2022/12/04 03:45:28;;;;;;;58.05;29.15;;;;;;;;;;5021906;28;20048;-75
2022/12/04 03:48:07;;;;;;;52.03;26.58;;;;;;;;;;5021969;28;20037;-74
2022/12/04 03:50:38;;;;;;;52.80;28.60;;;;;;;;;;5021103;28;20564;-74
2022/12/04 03:53:07;;;;;;;52.33;28.08;;;;;;;;;;5020707;28;20072;-76
2022/12/04 03:55:43;;;;;;;56.75;27.75;;;;;;;;;;5022139;28;20491;-74
2022/12/04 03:58:12;;;;;;;57.67;29.27;;;;;;;;;;5020927;28;20345;-74
2022/12/04 04:00:41;;;;;;;57.75;29.02;;;;;;;;;;5023328;28;20025;-75
2022/12/04 04:03:09;;;;;;;56.83;27.65;;;;;;;;;;5023477;28;20445;-74
2022/12/04 04:05:36;;;;;;;57.38;28.17;;;;;;;;;;5027754;28;20025;-74
2022/12/04 04:10:50;;;;;;;55.58;27.13;;;;;;;;;;5025382;28;20134;-74
2022/12/04 04:24:43;;;;;;;55.22;28.63;;;;;;;;;;5005452;28;20473;-73
2022/12/04 04:27:09;;;;;;;57.38;28.98;;;;;;;;;;5020560;28;20041;-75
2022/12/04 04:29:35;;;;;;;56.75;27.95;;;;;;;;;;5025297;28;20115;-75
2022/12/04 04:32:17;;;;;;;55.40;28.33;;;;;;;;;;5027101;28;20041;-74
2022/12/04 04:34:43;;;;;;;65.53;31.02;;;;;;;;;;5026793;28;20029;-74
2022/12/04 04:37:21;;;;;;;53.78;27.35;;;;;;;;;;5026571;28;20048;-74
2022/12/04 04:40:06;;;;;;;58.47;30.77;;;;;;;;;;5025483;28;20064;-73
2022/12/04 04:42:38;;;;;;;59.97;27.83;;;;;;;;;;5025927;28;20091;-76
2022/12/04 04:45:07;;;;;;;56.40;29.77;;;;;;;;;;5025146;28;20043;-73
2022/12/04 04:47:46;;;;;;;55.83;29.08;;;;;;;;;;5026109;28;20029;-77
2022/12/04 04:50:13;;;;;;;55.72;28.60;;;;;;;;;;5024863;28;20087;-74
2022/12/04 04:52:41;;;;;;;61.90;31.92;;;;;;;;;;5026816;28;20026;-74
2022/12/04 04:55:08;;;;;;;57.80;28.77;;;;;;;;;;5027281;28;20022;-73
2022/12/04 04:57:35;;;;;;;51.85;28.33;;;;;;;;;;5002857;28;20030;-73
2022/12/04 05:00:05;;;;;;;56.65;28.92;;;;;;;;;;5026448;28;20033;-75
2022/12/04 05:02:32;;;;;;;60.75;29.70;;;;;;;;;;5024993;28;20478;-73
2022/12/04 05:04:58;;;;;;;52.75;29.50;;;;;;;;;;5026056;28;20021;-74
2022/12/04 05:07:24;;;;;;;56.97;30.08;;;;;;;;;;5026928;28;20144;-72
2022/12/04 05:09:50;;;;;;;61.30;30.08;;;;;;;;;;5023767;28;20042;-77
2022/12/04 05:12:16;;;;;;;53.97;30.25;;;;;;;;;;5026025;28;20032;-74
2022/12/04 05:14:42;;;;;;;60.83;29.73;;;;;;;;;;5021187;28;21741;-73
2022/12/04 05:17:08;;;;;;;57.88;29.38;;;;;;;;;;5026691;28;20029;-73
2022/12/04 05:19:53;;;;;;;59.20;28.90;;;;;;;;;;5024872;28;20321;-73
2022/12/04 05:22:27;;;;;;;56.85;30.15;;;;;;;;;;5024898;28;20034;-75
2022/12/04 05:24:53;;;;;;;60.67;29.60;;;;;;;;;;5022694;28;20030;-76
2022/12/04 05:27:19;;;;;;;62.60;32.25;;;;;;;;;;5027582;28;20091;-75
2022/12/04 05:29:46;;;;;;;58.50;31.08;;;;;;;;;;5026789;28;20033;-74
2022/12/04 05:32:12;;;;;;;58.35;31.42;;;;;;;;;;5020244;28;20048;-74
2022/12/04 05:34:38;;;;;;;56.53;30.23;;;;;;;;;;5021976;28;20030;-78
2022/12/04 05:37:04;;;;;;;55.72;29.75;;;;;;;;;;5023492;28;20042;-73
2022/12/04 05:39:30;;;;;;;59.38;31.48;;;;;;;;;;5023760;28;20423;-74
2022/12/04 05:41:56;;;;;;;60.95;31.73;;;;;;;;;;5025562;28;20501;-75
2022/12/04 05:44:22;;;;;;;60.05;31.02;;;;;;;;;;5024484;28;20504;-73
2022/12/04 05:46:48;;;;;;;59.95;31.73;;;;;;;;;;5024006;28;20421;-74
2022/12/04 05:49:14;;;;;;;60.53;30.35;;;;;;;;;;5022978;28;20163;-74
2022/12/04 05:51:40;;;;;;;55.50;29.27;;;;;;;;;;5018725;28;20031;-75
2022/12/04 05:54:06;;;;;;;54.90;29.85;;;;;;;;;;5024244;28;20022;-75
2022/12/04 05:56:32;;;;;;;54.78;29.27;;;;;;;;;;5024381;28;20461;-74
2022/12/04 05:58:58;;;;;;;56.83;30.20;;;;;;;;;;5023527;28;20037;-74
2022/12/04 06:01:24;;;;;;;57.63;30.48;;;;;;;;;;5023717;28;20022;-74
2022/12/04 06:03:50;;;;;;;60.08;31.15;;;;;;;;;;5025784;28;20477;-77
2022/12/04 06:06:18;;;;;;;55.83;30.60;;;;;;;;;;5023839;28;20115;-74
2022/12/04 06:08:44;;;;;;;55.90;30.60;;;;;;;;;;5024691;28;20099;-78
2022/12/04 06:11:13;;;;;;;52.72;29.58;;;;;;;;;;5023832;28;20025;-75
2022/12/04 06:13:41;;;;;;;54.33;28.30;;;;;;;;;;5025876;28;20033;-73
2022/12/04 06:16:11;;;;;;;56.30;30.23;;;;;;;;;;5023345;28;20033;-74
2022/12/04 06:18:37;;;;;;;57.45;30.10;;;;;;;;;;5019098;28;20044;-74
2022/12/04 06:21:03;;;;;;;59.00;30.90;;;;;;;;;;5024419;28;20087;-77
2022/12/04 06:23:29;;;;;;;53.72;29.88;;;;;;;;;;5024506;28;20128;-74
2022/12/04 06:25:55;;;;;;;52.55;28.13;;;;;;;;;;5024723;28;20195;-74
2022/12/04 06:28:21;;;;;;;55.35;29.00;;;;;;;;;;5021510;28;20112;-74
2022/12/04 06:30:47;;;;;;;56.75;29.55;;;;;;;;;;5020173;28;20053;-74
2022/12/04 06:33:13;;;;;;;51.97;28.90;;;;;;;;;;5024104;28;20026;-72
2022/12/04 06:35:39;;;;;;;54.65;30.45;;;;;;;;;;5023786;28;20029;-74
2022/12/04 06:38:06;;;;;;;53.28;28.30;;;;;;;;;;5023995;28;20484;-75
2022/12/04 06:40:32;;;;;;;54.60;28.88;;;;;;;;;;5020524;28;20156;-72
2022/12/04 06:42:59;;;;;;;55.15;28.30;;;;;;;;;;5006983;28;20033;-78
2022/12/04 06:45:25;;;;;;;60.80;29.42;;;;;;;;;;5005952;28;20042;-74
2022/12/04 06:47:51;;;;;;;54.20;29.13;;;;;;;;;;5022950;28;20038;-74
2022/12/04 06:50:17;;;;;;;62.97;30.50;;;;;;;;;;5005620;28;20037;-76
2022/12/04 06:52:43;;;;;;;59.70;29.70;;;;;;;;;;5021976;28;20144;-75
2022/12/04 06:55:09;;;;;;;57.70;29.88;;;;;;;;;;5019303;28;20033;-75
2022/12/04 06:57:35;;;;;;;51.42;28.17;;;;;;;;;;5024293;28;20025;-72
2022/12/04 07:00:01;;;;;;;53.20;28.40;;;;;;;;;;5022460;28;20049;-78
2022/12/04 07:02:27;;;;;;;54.22;29.83;;;;;;;;;;5014399;28;20037;-81
2022/12/04 07:04:56;;;;;;;54.15;30.05;;;;;;;;;;5017342;28;20025;-72
2022/12/04 07:07:22;;;;;;;52.25;29.02;;;;;;;;;;5021892;28;20050;-76
2022/12/04 07:09:48;;;;;;;55.85;30.15;;;;;;;;;;5018683;28;20410;-76
2022/12/04 07:12:14;;;;;;;56.35;28.55;;;;;;;;;;5018530;28;20029;-72
2022/12/04 07:14:40;;;;;;;51.90;28.70;;;;;;;;;;5020453;28;20048;-72
2022/12/04 07:17:07;;;;;;;55.83;30.90;;;;;;;;;;5020783;28;20064;-73
2022/12/04 07:19:33;;;;;;;52.75;27.92;;;;;;;;;;5022772;28;20037;-77
2022/12/04 07:21:59;;;;;;;59.85;29.60;;;;;;;;;;5025026;28;20381;-74
2022/12/04 07:24:25;;;;;;;59.45;32.08;;;;;;;;;;5013355;28;20105;-73
2022/12/04 07:26:51;;;;;;;53.13;28.40;;;;;;;;;;5024749;28;20100;-77
2022/12/04 07:29:17;;;;;;;52.58;28.73;;;;;;;;;;5028828;28;20381;-74
2022/12/04 07:31:43;;;;;;;51.33;28.42;;;;;;;;;;5025148;28;20493;-74
2022/12/04 07:34:09;;;;;;;54.20;29.52;;;;;;;;;;5025735;28;20513;-74
2022/12/04 07:36:35;;;;;;;57.83;29.35;;;;;;;;;;5020776;28;20394;-74
2022/12/04 07:39:01;;;;;;;58.33;29.20;;;;;;;;;;5020990;28;20030;-75
2022/12/04 07:41:27;;;;;;;54.35;28.73;;;;;;;;;;5016520;28;20122;-75
2022/12/04 07:43:54;;;;;;;54.00;29.23;;;;;;;;;;5019240;28;20033;-75
2022/12/04 07:46:24;;;;;;;56.28;30.10;;;;;;;;;;5016650;28;20037;-74
2022/12/04 07:48:52;;;;;;;49.95;28.70;;;;;;;;;;4993753;28;20388;-74
2022/12/04 07:51:20;;;;;;;52.80;28.65;;;;;;;;;;5000687;28;20069;-77
2022/12/04 07:53:46;;;;;;;55.78;30.02;;;;;;;;;;4993824;28;20106;-73
2022/12/04 07:56:13;;;;;;;56.17;29.67;;;;;;;;;;4990886;28;20034;-76
2022/12/04 07:58:41;;;;;;;57.97;29.73;;;;;;;;;;4985638;28;20061;-72
2022/12/04 08:01:07;;;;;;;80.05;42.53;;;;;;;;;;4987929;28;20712;-79
2022/12/04 08:03:33;;;;;;;59.13;30.63;;;;;;;;;;4986989;28;20129;-76
2022/12/04 08:06:00;;;;;;;55.28;27.13;;;;;;;;;;4994977;28;20049;-77
2022/12/04 08:08:26;;;;;;;55.03;29.83;;;;;;;;;;4996010;28;20659;-77
2022/12/04 08:10:52;;;;;;;54.47;30.45;;;;;;;;;;4994585;28;20482;-73
2022/12/04 08:13:18;;;;;;;57.13;30.10;;;;;;;;;;4989173;28;20553;-74
2022/12/04 08:15:44;;;;;;;54.83;28.80;;;;;;;;;;4990475;28;20041;-76
2022/12/04 08:18:10;;;;;;;57.55;31.58;;;;;;;;;;4990663;28;20510;-72
2022/12/04 08:20:36;;;;;;;52.05;29.85;;;;;;;;;;4999011;28;20022;-74
2022/12/04 08:23:02;;;;;;;57.92;30.08;;;;;;;;;;5007568;28;20022;-74
2022/12/04 08:25:29;;;;;;;57.63;29.60;;;;;;;;;;5008379;28;20424;-75
2022/12/04 08:27:55;;;;;;;56.58;29.38;;;;;;;;;;5006268;28;20114;-77
2022/12/04 08:30:24;;;;;;;55.65;29.25;;;;;;;;;;4995069;28;20395;-77
2022/12/04 08:32:51;;;;;;;53.85;28.55;;;;;;;;;;4991939;28;20133;-73
2022/12/04 08:35:18;;;;;;;54.78;28.90;;;;;;;;;;4985358;28;20046;-76
2022/12/04 08:37:44;;;;;;;55.90;28.98;;;;;;;;;;4999825;28;20030;-75
2022/12/04 08:40:10;;;;;;;52.25;28.25;;;;;;;;;;4994351;28;20096;-73
2022/12/04 08:42:36;;;;;;;60.65;31.33;;;;;;;;;;4990399;28;20027;-75
2022/12/04 08:45:03;;;;;;;50.17;27.08;;;;;;;;;;4998890;28;20077;-77
2022/12/04 08:47:29;;;;;;;63.15;32.00;;;;;;;;;;4986681;28;20034;-74
2022/12/04 08:49:55;;;;;;;65.18;34.40;;;;;;;;;;4989553;28;20470;-81
2022/12/04 08:52:21;;;;;;;52.50;29.45;;;;;;;;;;4992916;28;20034;-76
2022/12/04 08:54:49;;;;;;;54.20;29.17;;;;;;;;;;4999179;28;20461;-82
2022/12/04 08:57:15;;;;;;;57.72;28.85;;;;;;;;;;4998146;28;20038;-82
2022/12/04 08:59:41;;;;;;;47.60;26.48;;;;;;;;;;4996813;28;20034;-76
2022/12/04 09:02:12;;;;;;;55.45;28.83;;;;;;;;;;4998635;28;20089;-80
2022/12/04 09:04:38;;;;;;;55.00;29.25;;;;;;;;;;4994851;28;20081;-79
2022/12/04 09:07:04;;;;;;;49.60;28.58;;;;;;;;;;4990521;28;20058;-77
2022/12/04 09:09:30;;;;;;;54.05;27.75;;;;;;;;;;4995861;28;20156;-87
2022/12/04 09:11:56;;;;;;;55.25;29.45;;;;;;;;;;4994912;28;20564;-78
2022/12/04 09:14:24;;;;;;;54.83;29.08;;;;;;;;;;4992295;28;20045;-83
2022/12/04 09:16:51;;;;;;;52.03;28.88;;;;;;;;;;4991989;28;20118;-77
2022/12/04 09:19:18;;;;;;;58.50;29.25;;;;;;;;;;4999522;28;20548;-78
2022/12/04 09:21:44;;;;;;;54.00;28.10;;;;;;;;;;4994148;28;20129;-78
2022/12/04 09:24:10;;;;;;;55.03;29.23;;;;;;;;;;4993129;28;20042;-80
2022/12/04 09:26:36;;;;;;;52.42;28.98;;;;;;;;;;4998011;28;20038;-82
2022/12/04 09:29:03;;;;;;;52.25;27.05;;;;;;;;;;4994528;28;20050;-78
2022/12/04 09:31:29;;;;;;;49.00;28.33;;;;;;;;;;5000410;28;20053;-77
2022/12/04 09:33:57;;;;;;;54.95;28.55;;;;;;;;;;5000826;28;20125;-79
2022/12/04 09:36:23;;;;;;;51.67;27.60;;;;;;;;;;4998869;28;20023;-81
2022/12/04 09:38:51;;;;;;;52.17;26.73;;;;;;;;;;4992385;28;20046;-78
2022/12/04 09:41:23;;;;;;;52.15;28.83;;;;;;;;;;4987800;28;20038;-73
2022/12/04 09:43:54;;;;;;;57.65;30.55;;;;;;;;;;5004387;28;20052;-81
2022/12/04 09:46:31;;;;;;;51.13;28.85;;;;;;;;;;5007855;28;20022;-71
2022/12/04 09:48:58;;;;;;;52.13;28.38;;;;;;;;;;5005342;28;20739;-80
2022/12/04 09:51:25;;;;;;;52.83;29.90;;;;;;;;;;4992694;28;20033;-78
2022/12/04 09:54:02;;;;;;;53.88;27.63;;;;;;;;;;4993910;28;20139;-83
2022/12/04 09:56:30;;;;;;;54.55;29.02;;;;;;;;;;4990672;28;20034;-78
2022/12/04 09:59:02;;;;;;;49.50;28.13;;;;;;;;;;4994251;28;20081;-78
2022/12/04 10:01:36;;;;;;;53.58;28.55;;;;;;;;;;5001919;28;20045;-75
2022/12/04 10:04:02;;;;;;;53.28;26.30;;;;;;;;;;4997146;28;20133;-79
2022/12/04 10:06:32;;;;;;;46.78;27.10;;;;;;;;;;4996446;28;20289;-77
2022/12/04 10:09:03;;;;;;;49.45;27.80;;;;;;;;;;4996309;28;20053;-79
2022/12/04 10:11:43;;;;;;;47.92;28.00;;;;;;;;;;5000976;28;20030;-81
2022/12/04 10:14:15;;;;;;;43.78;25.95;;;;;;;;;;4991697;28;20038;-78
2022/12/04 10:16:52;;;;;;;46.80;27.25;;;;;;;;;;5001063;28;20428;-77
2022/12/04 10:19:41;;;;;;;45.83;26.60;;;;;;;;;;4994820;28;20091;-81
2022/12/04 10:22:13;;;;;;;47.70;26.63;;;;;;;;;;4983434;28;20038;-76
2022/12/04 10:24:42;;;;;;;48.08;25.67;;;;;;;;;;4990229;28;20034;-76
2022/12/04 10:27:11;;;;;;;45.97;26.00;;;;;;;;;;4992307;28;20045;-77
2022/12/04 10:29:38;;;;;;;46.78;25.40;;;;;;;;;;4990384;28;20057;-83
2022/12/04 10:32:16;;;;;;;44.45;24.50;;;;;;;;;;4998329;28;20084;-77
2022/12/04 10:34:43;;;;;;;41.78;24.60;;;;;;;;;;4994488;28;20033;-79
2022/12/04 10:37:12;;;;;;;70.68;37.55;;;;;;;;;;4999627;28;20030;-80
2022/12/04 10:39:44;;;;;;;48.05;27.95;;;;;;;;;;4993592;28;20026;-79
2022/12/04 10:42:23;;;;;;;44.05;25.92;;;;;;;;;;4988034;28;20018;-82
2022/12/04 10:44:49;;;;;;;39.70;24.10;;;;;;;;;;4999351;28;20653;-80
2022/12/04 10:47:15;;;;;;;40.40;23.48;;;;;;;;;;4987094;28;20105;-80
2022/12/04 10:49:41;;;;;;;39.25;24.30;;;;;;;;;;4992683;28;20475;-77
2022/12/04 10:52:10;;;;;;;40.88;22.85;;;;;;;;;;4995794;28;20076;-77
2022/12/04 10:54:36;;;;;;;37.25;23.38;;;;;;;;;;4992111;28;20045;-75
2022/12/04 10:57:02;;;;;;;39.83;23.85;;;;;;;;;;4995825;28;20613;-75
2022/12/04 10:59:29;;;;;;;40.05;22.52;;;;;;;;;;4991144;28;20058;-77
2022/12/04 11:01:59;;;;;;;41.80;22.90;;;;;;;;;;4993088;28;20544;-79
2022/12/04 11:04:27;;;;;;;35.58;21.20;;;;;;;;;;4997777;28;20034;-79
2022/12/04 11:07:03;;;;;;;36.50;22.13;;;;;;;;;;4992417;28;20506;-79
2022/12/04 11:09:29;;;;;;;36.35;20.27;;;;;;;;;;4988976;28;20473;-82
2022/12/04 11:12:04;;;;;;;37.13;21.52;;;;;;;;;;4992043;28;20077;-80
2022/12/04 11:14:31;;;;;;;39.40;20.70;;;;;;;;;;4997526;28;20564;-78
2022/12/04 11:17:01;;;;;;;35.15;20.73;;;;;;;;;;4993004;28;20042;-79
2022/12/04 11:19:33;;;;;;;35.00;20.15;;;;;;;;;;4995540;28;20029;-77
2022/12/04 11:22:19;;;;;;;31.20;19.85;;;;;;;;;;4991496;28;20666;-83
2022/12/04 11:24:55;;;;;;;31.05;18.80;;;;;;;;;;4992364;28;20041;-81
2022/12/04 11:27:34;;;;;;;31.90;18.65;;;;;;;;;;4995286;28;20077;-84
2022/12/04 11:30:01;;;;;;;29.30;16.85;;;;;;;;;;4992434;28;20031;-78
2022/12/04 11:32:33;;;;;;;28.45;16.10;;;;;;;;;;4990915;28;20052;-82
2022/12/04 11:35:00;;;;;;;31.50;17.42;;;;;;;;;;4996222;28;20034;-80
2022/12/04 11:37:32;;;;;;;27.63;15.90;;;;;;;;;;4974589;28;20066;-84
2022/12/04 11:39:58;;;;;;;29.70;17.30;;;;;;;;;;4994791;28;20148;-79
2022/12/04 11:42:29;;;;;;;29.15;16.95;;;;;;;;;;4992686;28;20088;-78
2022/12/04 11:44:58;;;;;;;27.85;16.42;;;;;;;;;;4994214;28;20037;-87
2022/12/04 11:47:25;;;;;;;30.88;17.35;;;;;;;;;;4990180;28;20030;-81
2022/12/04 11:50:00;;;;;;;25.65;15.75;;;;;;;;;;4996678;28;20417;-78
2022/12/04 11:52:26;;;;;;;28.75;17.10;;;;;;;;;;4991395;28;20431;-83
2022/12/04 11:55:27;;;;;;;27.40;16.40;;;;;;;;;;4997842;28;20038;-84
2022/12/04 11:58:04;;;;;;;27.33;15.73;;;;;;;;;;4933415;28;20043;-81
2022/12/04 12:00:31;;;;;;;25.75;15.30;;;;;;;;;;4978628;28;20054;-79
2022/12/04 12:03:12;;;;;;;26.23;14.73;;;;;;;;;;4998170;28;20096;-79
2022/12/04 12:05:41;;;;;;;25.95;14.70;;;;;;;;;;4994836;28;20030;-74
2022/12/04 12:08:25;;;;;;;26.55;15.85;;;;;;;;;;4991950;28;20062;-75
2022/12/04 12:11:01;;;;;;;24.88;15.02;;;;;;;;;;4990721;28;20033;-76
2022/12/04 12:13:27;;;;;;;23.13;13.38;;;;;;;;;;4989543;28;20037;-77
2022/12/04 12:16:16;;;;;;;28.33;14.95;;;;;;;;;;4993817;28;20156;-75
2022/12/04 12:18:42;;;;;;;26.70;15.20;;;;;;;;;;4988561;28;20037;-81
2022/12/04 12:21:21;;;;;;;23.90;14.50;;;;;;;;;;4992812;28;20041;-77
2022/12/04 12:23:48;;;;;;;19.20;12.27;;;;;;;;;;4999106;28;20680;-76
2022/12/04 12:26:15;;;;;;;22.98;13.85;;;;;;;;;;4995996;28;20522;-77
2022/12/04 12:29:03;;;;;;;20.27;11.98;;;;;;;;;;4992725;28;20112;-78
2022/12/04 12:31:42;;;;;;;22.85;14.00;;;;;;;;;;4994963;28;20030;-77
2022/12/04 12:34:10;;;;;;;22.90;13.15;;;;;;;;;;4995507;28;20118;-79
2022/12/04 12:36:41;;;;;;;24.65;14.00;;;;;;;;;;4988657;28;20034;-82
2022/12/04 12:39:10;;;;;;;22.85;13.27;;;;;;;;;;4995926;28;20030;-80
2022/12/04 12:41:42;;;;;;;25.10;14.68;;;;;;;;;;4991376;28;20030;-78
2022/12/04 12:44:11;;;;;;;25.38;14.32;;;;;;;;;;5001175;28;20026;-78
2022/12/04 12:46:39;;;;;;;24.98;15.32;;;;;;;;;;4996761;28;20117;-75
2022/12/04 12:49:17;;;;;;;23.83;14.60;;;;;;;;;;4998437;28;20092;-75
2022/12/04 12:51:43;;;;;;;35.15;18.17;;;;;;;;;;5005483;28;20181;-74
2022/12/04 12:54:37;;;;;;;27.05;15.32;;;3.30;99.90;;;;;;5004581;28;20157;-77
2022/12/04 12:57:23;;;;;;;21.80;13.00;;;;;;;;;;5003073;28;20022;-75
2022/12/04 13:00:00;;;;;;;19.83;12.25;;;;;;;;;;4991819;28;20471;-75
2022/12/04 13:02:26;;;;;;;17.25;11.02;;;;;;;;;;4992176;28;20368;-77
2022/12/04 13:04:53;;;;;;;22.13;12.68;;;;;;;;;;4999813;28;20032;-76
2022/12/04 13:07:37;;;;;;;20.08;11.95;;;;;;;;;;4994333;28;20061;-79
2022/12/04 13:10:11;;;;;;;23.15;13.98;;;;;;;;;;4996239;28;20091;-76
2022/12/04 13:12:43;;;;;;;20.67;12.93;;;;;;;;;;4995360;28;20097;-76
2022/12/04 13:15:13;;;;;;;20.20;11.45;;;;;;;;;;5002921;28;20034;-77
2022/12/04 13:17:39;;;;;;;19.85;12.07;;;;;;;;;;4993886;28;20525;-80
2022/12/04 13:20:08;;;;;;;20.65;12.52;;;;;;;;;;5004115;28;20041;-76
2022/12/04 13:22:34;;;;;;;19.95;11.98;;;;;;;;;;4998551;28;20034;-71
2022/12/04 13:25:27;;;;;;;17.45;10.75;;;;;;;;;;4991282;28;20023;-70
2022/12/04 13:28:05;;;;;;;20.63;12.98;;;;;;;;;;4973256;28;20054;-78
2022/12/04 13:30:44;;;;;;;20.85;13.50;;;;;;;;;;5000038;28;20037;-72
2022/12/04 13:33:19;;;;;;;24.25;13.80;;;;;;;;;;4997708;28;20630;-80
2022/12/04 13:36:00;;;;;;;24.83;14.40;;;;;;;;;;4989844;28;20034;-77
2022/12/04 13:38:38;;;;;;;23.38;12.82;;;;;;;;;;4999760;28;20038;-71
2022/12/04 13:41:06;;;;;;;22.85;12.93;;;;;;;;;;4998460;28;20043;-72
2022/12/04 13:43:41;;;;;;;21.48;13.70;;;;;;;;;;4992991;28;20030;-77
2022/12/04 13:46:26;;;;;;;23.00;13.98;;;;;;;;;;4995709;28;20062;-75
2022/12/04 13:48:52;;;;;;;23.08;14.02;;;;;;;;;;4996334;28;20070;-70
2022/12/04 13:51:38;;;;;;;22.60;13.43;;;;;;;;;;4996140;28;20490;-72
2022/12/04 13:54:04;;;;;;;21.15;13.02;;;;;;;;;;4993244;28;20108;-72
2022/12/04 13:56:30;;;;;;;32.05;15.50;;;;;;;;;;4992406;28;20482;-74
2022/12/04 13:59:01;;;;;;;24.95;14.50;;;;;;;;;;5004103;28;20038;-79
2022/12/04 14:01:40;;;;;;;26.90;16.88;;;;;;;;;;4994280;28;20034;-77
2022/12/04 14:04:07;;;;;;;27.00;15.75;;;;;;;;;;4993731;28;20030;-73
2022/12/04 14:06:36;;;;;;;24.40;14.35;;;;;;;;;;4983804;28;20053;-76
2022/12/04 14:09:04;;;;;;;23.98;14.48;;;;;;;;;;4982567;28;20045;-81
2022/12/04 14:11:32;;;;;;;25.13;16.15;;;;;;;;;;4994516;28;20036;-75
2022/12/04 14:13:59;;;;;;;29.40;17.48;;;;;;;;;;4997080;28;20430;-77
2022/12/04 14:16:27;;;;;;;31.08;18.23;;;;;;;;;;4994485;28;20033;-75
2022/12/04 14:18:55;;;;;;;31.23;17.30;;;;;;;;;;4995954;28;20434;-81
2022/12/04 14:21:22;;;;;;;27.95;15.55;;;;;;;;;;4991029;28;20110;-75
2022/12/04 14:23:48;;;;;;;28.08;15.63;;;;;;;;;;5001862;28;20112;-76
2022/12/04 14:26:19;;;;;;;29.45;16.23;;;;;;;;;;5001719;28;21465;-82
2022/12/04 14:28:45;;;;;;;25.90;15.55;;;;;;;;;;4998666;28;20044;-74
2022/12/04 14:31:21;;;;;;;26.95;14.82;;;;;;;;;;4994522;28;20505;-75
2022/12/04 14:33:50;;;;;;;24.75;15.55;;;;;;;;;;4997363;28;20037;-76
2022/12/04 14:36:19;;;;;;;29.02;15.77;;;;;;;;;;4992785;28;20055;-76
2022/12/04 14:38:47;;;;;;;21.85;14.15;;;;;;;;;;4992855;28;20458;-77
2022/12/04 14:41:13;;;;;;;30.83;17.05;;;;;;;;;;5007899;28;20065;-75
2022/12/04 14:43:40;;;;;;;28.80;17.58;;;;;;;;;;5003095;28;20064;-81